createdAt,value
2022-09-09T00:02:20.493Z,24.02
2022-09-09T00:07:24.235Z,24.00
2022-09-09T00:12:36.440Z,23.99
2022-09-09T00:17:41.671Z,23.98
2022-09-09T00:22:47.045Z,23.93
2022-09-09T00:27:51.269Z,23.92
2022-09-09T00:32:58.795Z,23.89
2022-09-09T00:38:03.688Z,23.92
2022-09-09T00:43:26.472Z,23.87
2022-09-09T00:48:32.090Z,23.88
2022-09-09T00:53:38.274Z,23.81
2022-09-09T00:58:43.060Z,23.89
2022-09-09T01:03:48.691Z,23.83
2022-09-09T01:09:09.414Z,23.81
2022-09-09T01:14:17.221Z,23.77
2022-09-09T01:19:22.204Z,23.65
2022-09-09T01:24:27.827Z,23.69
2022-09-09T01:29:40.981Z,23.60
2022-09-09T01:34:44.153Z,23.61
2022-09-09T01:39:47.026Z,23.57
2022-09-09T01:44:55.185Z,23.59
2022-09-09T01:49:57.849Z,23.58
2022-09-09T01:55:03.268Z,23.54
2022-09-09T02:00:14.077Z,23.53
2022-09-09T02:05:25.777Z,23.52
2022-09-09T02:10:32.395Z,23.50
2022-09-09T02:15:50.481Z,23.50
2022-09-09T02:20:53.505Z,23.47
2022-09-09T02:25:56.902Z,23.44
2022-09-09T02:31:03.059Z,23.45
2022-09-09T02:36:12.437Z,23.45
2022-09-09T02:41:17.509Z,23.43
2022-09-09T02:46:33.222Z,23.43
2022-09-09T02:51:38.740Z,23.40
2022-09-09T02:56:43.877Z,23.41
2022-09-09T03:01:49.498Z,23.42
2022-09-09T03:06:52.380Z,23.38
2022-09-09T03:11:57.007Z,23.40
2022-09-09T03:17:01.886Z,23.41
2022-09-09T03:22:07.742Z,23.34
2022-09-09T03:27:13.061Z,23.37
2022-09-09T03:32:18.514Z,23.37
2022-09-09T03:37:21.349Z,23.34
2022-09-09T03:42:28.739Z,23.35
2022-09-09T03:47:34.367Z,23.32
2022-09-09T03:52:43.105Z,23.31
2022-09-09T03:57:52.383Z,23.29
2022-09-09T04:02:57.673Z,23.28
2022-09-09T04:08:00.320Z,23.26
2022-09-09T04:13:03.309Z,23.26
2022-09-09T04:18:07.521Z,23.24
2022-09-09T04:23:10.174Z,23.23
2022-09-09T04:28:12.955Z,23.21
2022-09-09T04:33:18.150Z,23.20
2022-09-09T04:38:20.949Z,23.19
2022-09-09T04:43:26.822Z,23.17
2022-09-09T04:48:32.048Z,23.17
2022-09-09T04:53:35.986Z,23.14
2022-09-09T04:58:39.234Z,23.12
2022-09-09T05:03:46.263Z,23.12
2022-09-09T05:08:52.595Z,23.06
2022-09-09T05:13:59.810Z,23.02
2022-09-09T05:19:05.611Z,23.03
2022-09-09T05:24:19.170Z,22.99
2022-09-09T05:29:23.641Z,22.99
2022-09-09T05:34:28.181Z,23.01
2022-09-09T05:39:30.917Z,23.00
2022-09-09T05:44:33.996Z,22.98
2022-09-09T05:49:38.792Z,23.02
2022-09-09T05:54:42.724Z,22.98
2022-09-09T05:59:45.798Z,23.00
2022-09-09T06:04:50.434Z,23.02
2022-09-09T06:09:53.891Z,23.02
2022-09-09T06:14:56.760Z,23.04
2022-09-09T06:20:01.094Z,23.05
2022-09-09T06:25:04.630Z,23.05
2022-09-09T06:30:08.597Z,23.06
2022-09-09T06:35:12.876Z,23.10
2022-09-09T06:40:16.395Z,23.11
2022-09-09T06:45:19.330Z,23.12
2022-09-09T06:50:30.142Z,23.12
2022-09-09T06:55:33.192Z,23.12
2022-09-09T07:00:38.849Z,23.13
2022-09-09T07:05:43.132Z,23.15
2022-09-09T07:10:45.937Z,23.16
2022-09-09T07:15:48.921Z,23.15
2022-09-09T07:20:57.094Z,23.11
2022-09-09T07:26:00.974Z,23.17
2022-09-09T07:31:05.229Z,23.21
2022-09-09T07:36:11.142Z,23.22
2022-09-09T07:41:17.122Z,23.17
2022-09-09T07:46:21.289Z,22.80
2022-09-09T07:51:26.698Z,22.40
2022-09-09T07:56:30.084Z,22.33
2022-09-09T08:01:34.139Z,22.10
2022-09-09T08:06:39.603Z,21.98
2022-09-09T08:11:43.985Z,21.96
2022-09-09T08:16:48.515Z,21.93
2022-09-09T08:21:55.863Z,22.02
2022-09-09T08:26:58.663Z,22.11
2022-09-09T08:32:02.371Z,22.04
2022-09-09T08:37:06.975Z,22.07
2022-09-09T08:42:26.638Z,21.83
2022-09-09T08:47:36.629Z,21.89
2022-09-09T08:52:45.962Z,21.95
2022-09-09T08:57:49.272Z,21.85
2022-09-09T09:02:57.477Z,21.96
2022-09-09T09:08:07.269Z,21.98
2022-09-09T09:13:14.971Z,22.01
2022-09-09T09:18:17.765Z,22.06
2022-09-09T09:23:24.306Z,22.09
2022-09-09T09:28:31.130Z,22.14
2022-09-09T09:33:47.105Z,22.16
2022-09-09T09:44:27.539Z,22.24
2022-09-09T09:49:31.904Z,22.33
2022-09-09T09:54:39.341Z,22.33
2022-09-09T09:59:42.199Z,22.34
2022-09-09T10:04:51.172Z,22.37
2022-09-09T10:09:56.002Z,22.41
2022-09-09T10:15:02.548Z,22.46
2022-09-09T10:20:19.812Z,22.62
2022-09-09T10:25:34.257Z,22.78
2022-09-09T10:30:39.404Z,22.91
2022-09-09T10:35:44.202Z,23.03
2022-09-09T10:41:00.647Z,23.08
2022-09-09T10:46:07.048Z,23.19
2022-09-09T10:51:19.884Z,23.25
2022-09-09T10:56:24.588Z,23.36
2022-09-09T11:01:28.850Z,23.40
2022-09-09T11:06:33.610Z,23.46
2022-09-09T11:11:40.991Z,23.54
2022-09-09T11:16:44.517Z,23.56
2022-09-09T11:21:48.070Z,23.66
2022-09-09T11:26:53.737Z,23.79
2022-09-09T11:32:03.812Z,23.82
2022-09-09T11:37:19.275Z,23.90
2022-09-09T11:42:25.073Z,23.84
2022-09-09T11:47:30.594Z,23.92
2022-09-09T11:52:38.573Z,23.98
2022-09-09T11:57:48.932Z,23.98
2022-09-09T12:02:52.117Z,24.05
2022-09-09T12:07:57.133Z,24.10
2022-09-09T12:13:16.217Z,24.14
2022-09-09T12:18:24.384Z,24.17
2022-09-09T12:23:33.124Z,24.22
2022-09-09T12:28:47.039Z,24.27
2022-09-09T12:33:49.639Z,24.27
2022-09-09T12:38:53.344Z,24.34
2022-09-09T12:44:08.894Z,24.40
2022-09-09T12:49:26.701Z,24.41
2022-09-09T12:54:29.542Z,24.41
2022-09-09T12:59:38.767Z,24.42
2022-09-09T13:04:41.402Z,24.45
2022-09-09T13:09:44.550Z,24.47
2022-09-09T13:14:49.436Z,24.63
2022-09-09T13:19:53.503Z,24.79
2022-09-09T13:25:03.411Z,24.90
2022-09-09T13:30:24.647Z,24.98
2022-09-09T13:35:27.716Z,25.03
2022-09-09T13:40:31.336Z,24.96
2022-09-09T13:45:35.776Z,24.76
2022-09-09T13:50:38.555Z,24.72
2022-09-09T13:55:41.419Z,24.70
2022-09-09T14:00:45.734Z,24.67
2022-09-09T14:05:48.387Z,24.64
2022-09-09T14:10:51.389Z,24.65
2022-09-09T14:15:55.527Z,24.58
2022-09-09T14:20:58.191Z,24.55
2022-09-09T14:26:00.768Z,24.58
2022-09-09T14:31:06.453Z,24.55
2022-09-09T14:36:09.440Z,24.55
2022-09-09T14:41:12.652Z,24.52
2022-09-09T14:46:17.365Z,24.49
2022-09-09T14:51:21.428Z,24.48
2022-09-09T14:56:25.413Z,24.55
2022-09-09T15:01:30.279Z,24.59
2022-09-09T15:06:33.991Z,24.61
2022-09-09T15:11:38.696Z,25.50
2022-09-09T15:16:42.929Z,26.05
2022-09-09T15:21:45.496Z,25.37
2022-09-09T15:26:48.741Z,25.28
2022-09-09T15:31:52.830Z,25.18
2022-09-09T15:36:56.291Z,25.10
2022-09-09T15:41:58.863Z,25.04
2022-09-09T15:47:02.805Z,24.94
2022-09-09T15:52:05.581Z,24.94
2022-09-09T15:57:09.320Z,24.94
2022-09-09T16:02:13.660Z,24.88
2022-09-09T16:07:16.359Z,24.88
2022-09-09T16:12:19.019Z,24.88
2022-09-09T16:17:23.172Z,24.85
2022-09-09T16:22:25.796Z,24.82
2022-09-09T16:27:28.508Z,25.21
2022-09-09T16:32:32.476Z,25.50
2022-09-09T16:37:35.095Z,25.64
2022-09-09T16:42:39.681Z,25.70
2022-09-09T16:47:44.665Z,25.75
2022-09-09T16:52:47.297Z,25.75
2022-09-09T16:57:50.458Z,25.61
2022-09-09T17:02:54.637Z,25.28
2022-09-09T17:07:58.346Z,25.16
2022-09-09T17:13:02.567Z,25.10
2022-09-09T17:18:06.911Z,25.02
2022-09-09T17:23:10.139Z,25.00
2022-09-09T17:28:13.148Z,24.95
2022-09-09T17:33:17.407Z,24.96
2022-09-09T17:38:20.247Z,24.94
2022-09-09T17:43:22.840Z,24.92
2022-09-09T17:48:28.277Z,24.90
2022-09-09T17:53:31.717Z,24.87
2022-09-09T17:58:34.458Z,24.86
2022-09-09T18:03:38.728Z,24.85
2022-09-09T18:08:41.519Z,24.80
2022-09-09T18:13:44.226Z,24.81
2022-09-09T18:18:49.428Z,24.80
2022-09-09T18:23:53.248Z,24.82
2022-09-09T18:28:57.194Z,24.83
2022-09-09T18:34:02.842Z,24.82
2022-09-09T18:39:06.221Z,24.83
2022-09-09T18:44:11.361Z,24.83
2022-09-09T18:49:15.492Z,24.80
2022-09-09T18:54:19.630Z,24.81
2022-09-09T18:59:23.834Z,24.82
2022-09-09T19:04:27.873Z,24.82
2022-09-09T19:09:32.418Z,24.82
2022-09-09T19:14:35.317Z,24.81
2022-09-09T19:19:42.325Z,24.78
2022-09-09T19:24:45.833Z,24.78
2022-09-09T19:29:48.576Z,24.78
2022-09-09T19:34:52.763Z,24.79
2022-09-09T19:39:55.469Z,24.78
2022-09-09T19:44:58.265Z,24.76
2022-09-09T19:50:02.192Z,24.78
2022-09-09T19:55:05.415Z,24.75
2022-09-09T20:00:10.093Z,24.79
2022-09-09T20:05:16.259Z,24.78
2022-09-09T20:10:18.863Z,24.76
2022-09-09T20:15:21.504Z,24.79
2022-09-09T20:20:25.477Z,24.76
2022-09-09T20:25:28.145Z,24.76
2022-09-09T20:30:30.880Z,24.76
2022-09-09T20:35:36.480Z,24.76
2022-09-09T20:40:39.232Z,24.78
2022-09-09T20:45:43.749Z,24.74
2022-09-09T20:50:47.705Z,24.77
2022-09-09T20:55:50.819Z,24.77
2022-09-09T21:01:00.653Z,24.76
2022-09-09T21:06:05.093Z,24.78
2022-09-09T21:11:07.798Z,24.76
2022-09-09T21:16:13.742Z,24.73
2022-09-09T21:21:19.174Z,24.76
2022-09-09T21:26:22.810Z,24.77
2022-09-09T21:31:28.269Z,24.77
2022-09-09T21:36:33.733Z,24.76
2022-09-09T21:41:36.424Z,24.74
2022-09-09T21:46:39.030Z,24.73
2022-09-09T21:51:43.028Z,24.76
2022-09-09T21:56:45.726Z,24.72
2022-09-09T22:01:48.560Z,24.76
2022-09-09T22:06:52.743Z,24.75
2022-09-09T22:11:55.340Z,24.75
2022-09-09T22:16:58.233Z,24.76
2022-09-09T22:22:02.234Z,24.76
2022-09-09T22:27:05.678Z,24.73
2022-09-09T22:32:09.817Z,24.76
2022-09-09T22:37:13.748Z,24.76
2022-09-09T22:42:16.374Z,24.74
2022-09-09T22:47:18.991Z,24.87
2022-09-09T22:52:24.545Z,24.96
2022-09-09T22:57:27.263Z,24.99
2022-09-09T23:02:30.792Z,25.02
2022-09-09T23:07:34.750Z,25.05
2022-09-09T23:12:37.679Z,25.08
2022-09-09T23:17:40.919Z,25.12
2022-09-09T23:22:45.135Z,25.13
2022-09-09T23:27:48.830Z,25.13
2022-09-09T23:32:51.684Z,25.14
2022-09-09T23:37:55.651Z,25.15
2022-09-09T23:42:58.396Z,25.17
2022-09-09T23:48:00.993Z,25.19
2022-09-09T23:53:04.932Z,25.21
2022-09-09T23:58:07.533Z,25.21
